createdAt,value
2023-01-17T00:01:55.586Z,0.80
2023-01-17T00:04:40.783Z,0.73
2023-01-17T00:07:29.522Z,0.70
2023-01-17T00:09:58.259Z,0.70
2023-01-17T00:12:27.501Z,0.77
2023-01-17T00:14:55.972Z,0.70
2023-01-17T00:17:24.357Z,0.93
2023-01-17T00:20:09.684Z,0.80
2023-01-17T00:22:55.366Z,0.80
2023-01-17T00:25:43.710Z,0.80
2023-01-17T00:28:10.355Z,0.77
2023-01-17T00:30:38.487Z,0.85
2023-01-17T00:33:05.696Z,0.80
2023-01-17T00:35:33.444Z,0.70
2023-01-17T00:38:10.978Z,0.80
2023-01-17T00:40:39.560Z,0.70
2023-01-17T00:43:26.232Z,0.85
2023-01-17T00:46:12.161Z,0.93
2023-01-17T00:48:57.969Z,0.90
2023-01-17T00:51:44.719Z,0.77
2023-01-17T00:54:29.918Z,0.70
2023-01-17T00:57:15.708Z,0.90
2023-01-17T01:00:01.194Z,0.85
2023-01-17T01:02:47.163Z,0.75
2023-01-17T01:05:33.297Z,0.75
2023-01-17T01:08:19.121Z,0.80
2023-01-17T01:11:05.822Z,0.80
2023-01-17T01:13:52.123Z,0.80
2023-01-17T01:16:37.853Z,0.80
2023-01-17T01:19:24.216Z,0.85
2023-01-17T01:22:09.513Z,0.70
2023-01-17T01:24:54.758Z,0.80
2023-01-17T01:27:39.939Z,0.88
2023-01-17T01:30:25.689Z,0.70
2023-01-17T01:33:10.966Z,0.70
2023-01-17T01:35:40.430Z,0.85
2023-01-17T01:38:07.243Z,0.90
2023-01-17T01:40:33.941Z,0.80
2023-01-17T01:43:06.039Z,0.70
2023-01-17T01:45:33.007Z,0.70
2023-01-17T01:48:07.244Z,0.80
2023-01-17T01:50:36.829Z,0.80
2023-01-17T01:53:05.878Z,0.75
2023-01-17T01:55:39.453Z,0.70
2023-01-17T01:58:15.304Z,0.85
2023-01-17T02:00:42.468Z,1.08
2023-01-17T02:03:14.693Z,1.02
2023-01-17T02:05:43.711Z,0.90
2023-01-17T02:08:19.960Z,1.00
2023-01-17T02:10:47.713Z,1.00
2023-01-17T02:13:16.807Z,0.90
2023-01-17T02:15:58.719Z,0.75
2023-01-17T02:18:43.734Z,0.90
2023-01-17T02:21:13.261Z,1.00
2023-01-17T02:23:44.353Z,0.70
2023-01-17T02:26:19.900Z,0.80
2023-01-17T02:29:24.565Z,0.90
2023-01-17T02:32:05.193Z,0.90
2023-01-17T02:34:55.862Z,0.90
2023-01-17T02:37:45.796Z,0.70
2023-01-17T02:40:24.825Z,0.93
2023-01-17T02:42:58.800Z,0.70
2023-01-17T02:45:25.475Z,0.95
2023-01-17T02:47:52.248Z,0.80
2023-01-17T02:50:23.147Z,0.77
2023-01-17T02:52:55.688Z,0.90
2023-01-17T02:55:34.521Z,0.90
2023-01-17T02:58:19.484Z,1.10
2023-01-17T03:01:09.007Z,0.80
2023-01-17T03:03:54.168Z,0.90
2023-01-17T03:06:27.444Z,0.88
2023-01-17T03:08:54.643Z,0.98
2023-01-17T03:11:21.349Z,0.90
2023-01-17T03:13:48.078Z,0.90
2023-01-17T03:16:19.898Z,1.00
2023-01-17T03:18:46.829Z,0.90
2023-01-17T03:21:13.566Z,1.10
2023-01-17T03:23:43.117Z,1.00
2023-01-17T03:26:09.854Z,1.10
2023-01-17T03:28:36.607Z,1.00
2023-01-17T03:31:03.359Z,0.90
2023-01-17T03:33:30.309Z,1.10
2023-01-17T03:36:00.299Z,0.80
2023-01-17T03:38:32.184Z,1.00
2023-01-17T03:41:02.279Z,1.00
2023-01-17T03:43:29.001Z,1.00
2023-01-17T03:46:05.527Z,1.10
2023-01-17T03:48:32.497Z,1.08
2023-01-17T03:50:59.325Z,1.10
2023-01-17T03:53:26.125Z,1.90
2023-01-17T03:55:52.789Z,1.30
2023-01-17T03:58:20.181Z,1.45
2023-01-17T04:00:46.940Z,1.00
2023-01-17T04:03:15.846Z,1.20
2023-01-17T04:05:42.556Z,1.05
2023-01-17T04:08:09.350Z,1.05
2023-01-17T04:10:36.066Z,1.20
2023-01-17T04:13:02.759Z,1.10
2023-01-17T04:15:29.983Z,1.20
2023-01-17T04:17:57.067Z,1.38
2023-01-17T04:20:36.050Z,1.90
2023-01-17T04:23:03.005Z,1.30
2023-01-17T04:25:32.574Z,1.20
2023-01-17T04:28:01.209Z,1.80
2023-01-17T04:30:28.942Z,1.50
2023-01-17T04:32:56.038Z,1.60
2023-01-17T04:35:23.071Z,1.40
2023-01-17T04:37:50.108Z,1.80
2023-01-17T04:40:17.036Z,1.80
2023-01-17T04:42:45.341Z,2.00
2023-01-17T04:45:12.955Z,1.77
2023-01-17T04:47:39.881Z,1.63
2023-01-17T04:50:07.431Z,1.50
2023-01-17T04:52:34.134Z,1.42
2023-01-17T04:55:02.235Z,1.30
2023-01-17T04:57:29.028Z,1.80
2023-01-17T04:59:55.692Z,1.45
2023-01-17T05:02:22.428Z,1.80
2023-01-17T05:04:49.205Z,1.70
2023-01-17T05:07:15.879Z,1.75
2023-01-17T05:09:43.928Z,1.63
2023-01-17T05:12:10.939Z,1.90
2023-01-17T05:14:37.654Z,1.60
2023-01-17T05:17:04.318Z,1.60
2023-01-17T05:19:30.988Z,1.67
2023-01-17T05:22:04.345Z,1.70
2023-01-17T05:24:31.683Z,1.60
2023-01-17T05:27:03.304Z,1.55
2023-01-17T05:29:30.897Z,1.63
2023-01-17T05:31:57.913Z,1.80
2023-01-17T05:34:24.743Z,1.60
2023-01-17T05:36:51.748Z,1.70
2023-01-17T05:39:20.107Z,1.60
2023-01-17T05:41:46.758Z,1.25
2023-01-17T05:44:15.270Z,1.60
2023-01-17T05:46:42.447Z,1.60
2023-01-17T05:49:09.500Z,1.73
2023-01-17T05:51:37.937Z,1.63
2023-01-17T05:54:06.364Z,1.70
2023-01-17T05:56:33.942Z,1.90
2023-01-17T05:59:00.721Z,1.60
2023-01-17T06:01:27.670Z,1.90
2023-01-17T06:03:54.444Z,1.50
2023-01-17T06:06:21.815Z,1.90
2023-01-17T06:08:48.487Z,2.03
2023-01-17T06:11:15.260Z,1.60
2023-01-17T06:13:41.935Z,1.80
2023-01-17T06:16:08.777Z,1.30
2023-01-17T06:18:35.570Z,1.80
2023-01-17T06:21:02.422Z,2.10
2023-01-17T06:23:29.081Z,1.63
2023-01-17T06:25:55.774Z,2.00
2023-01-17T06:28:23.295Z,2.25
2023-01-17T06:30:50.164Z,2.10
2023-01-17T06:33:16.862Z,2.00
2023-01-17T06:35:50.969Z,2.10
2023-01-17T06:38:18.122Z,1.85
2023-01-17T06:40:44.768Z,1.70
2023-01-17T06:43:11.474Z,1.70
2023-01-17T06:45:38.155Z,1.67
2023-01-17T06:48:05.455Z,1.75
2023-01-17T06:50:33.551Z,1.73
2023-01-17T06:53:05.757Z,1.60
2023-01-17T06:55:36.215Z,1.40
2023-01-17T06:58:03.295Z,1.30
2023-01-17T07:00:40.366Z,1.40
2023-01-17T07:03:17.050Z,2.60
2023-01-17T07:05:43.756Z,5.80
2023-01-17T07:08:10.633Z,9.55
2023-01-17T07:10:37.298Z,8.32
2023-01-17T07:13:03.966Z,5.28
2023-01-17T07:15:30.712Z,3.20
2023-01-17T07:18:00.331Z,2.00
2023-01-17T07:20:27.078Z,1.85
2023-01-17T07:22:53.768Z,1.70
2023-01-17T07:25:20.518Z,1.80
2023-01-17T07:27:47.192Z,4.03
2023-01-17T07:30:14.329Z,3.85
2023-01-17T07:32:41.072Z,4.60
2023-01-17T07:35:08.004Z,4.00
2023-01-17T07:37:34.700Z,3.20
2023-01-17T07:40:03.076Z,3.42
2023-01-17T07:42:29.827Z,3.42
2023-01-17T07:44:56.484Z,3.40
2023-01-17T07:47:24.856Z,3.10
2023-01-17T07:49:51.573Z,2.83
2023-01-17T07:52:18.453Z,3.15
2023-01-17T07:54:45.176Z,3.45
2023-01-17T07:57:12.715Z,3.05
2023-01-17T07:59:39.509Z,3.17
2023-01-17T08:02:06.294Z,2.58
2023-01-17T08:04:35.382Z,2.90
2023-01-17T08:07:02.314Z,2.60
2023-01-17T08:09:31.052Z,2.00
2023-01-17T08:11:57.760Z,1.75
2023-01-17T08:14:25.045Z,1.90
2023-01-17T08:16:51.788Z,2.05
2023-01-17T08:19:18.889Z,1.70
2023-01-17T08:21:45.669Z,1.55
2023-01-17T08:24:13.905Z,1.73
2023-01-17T08:26:41.151Z,1.60
2023-01-17T08:29:08.001Z,1.77
2023-01-17T08:31:35.443Z,2.10
2023-01-17T08:34:03.080Z,1.50
2023-01-17T08:36:31.270Z,1.80
2023-01-17T08:38:58.909Z,1.67
2023-01-17T08:41:27.854Z,2.17
2023-01-17T08:43:56.583Z,1.77
2023-01-17T08:46:24.327Z,1.65
2023-01-17T08:49:02.895Z,1.60
2023-01-17T08:51:31.640Z,1.83
2023-01-17T08:53:59.146Z,1.70
2023-01-17T08:56:28.424Z,1.98
2023-01-17T08:58:55.125Z,1.50
2023-01-17T09:01:21.939Z,1.65
2023-01-17T09:03:49.898Z,1.60
2023-01-17T09:06:17.318Z,1.70
2023-01-17T09:08:47.065Z,1.40
2023-01-17T09:11:16.469Z,2.00
2023-01-17T09:13:43.592Z,2.00
2023-01-17T09:16:10.838Z,2.10
2023-01-17T09:18:37.729Z,1.70
2023-01-17T09:21:16.404Z,2.20
2023-01-17T09:23:43.828Z,1.90
2023-01-17T09:26:21.455Z,1.80
2023-01-17T09:28:49.007Z,2.25
2023-01-17T09:31:17.594Z,1.80
2023-01-17T09:33:44.737Z,1.88
2023-01-17T09:36:11.659Z,1.85
2023-01-17T09:38:40.136Z,1.58
2023-01-17T09:41:32.757Z,1.90
2023-01-17T09:44:28.647Z,2.40
2023-01-17T09:47:11.923Z,2.10
2023-01-17T09:49:43.466Z,1.65
2023-01-17T09:54:46.588Z,1.73
2023-01-17T09:57:24.410Z,1.70
2023-01-17T10:00:28.474Z,1.77
2023-01-17T10:03:17.051Z,1.60
2023-01-17T10:05:58.674Z,1.75
2023-01-17T10:11:17.808Z,2.20
2023-01-17T10:13:56.576Z,1.75
2023-01-17T10:16:42.039Z,1.83
2023-01-17T10:19:35.652Z,1.60
2023-01-17T10:22:31.154Z,1.90
2023-01-17T10:25:20.340Z,1.88
2023-01-17T10:28:05.073Z,1.45
2023-01-17T10:30:49.085Z,2.03
2023-01-17T10:33:20.807Z,1.50
2023-01-17T10:35:57.031Z,1.67
2023-01-17T10:38:36.582Z,1.33
2023-01-17T10:41:24.394Z,1.70
2023-01-17T10:44:15.711Z,3.58
2023-01-17T10:46:47.771Z,2.38
2023-01-17T10:49:18.571Z,1.65
2023-01-17T10:52:03.974Z,1.20
2023-01-17T10:54:43.296Z,1.02
2023-01-17T10:57:18.696Z,1.13
2023-01-17T10:59:45.536Z,1.02
2023-01-17T11:02:26.197Z,1.77
2023-01-17T11:04:55.728Z,1.70
2023-01-17T11:07:27.129Z,1.33
2023-01-17T11:12:44.066Z,0.82
2023-01-17T11:15:10.704Z,1.40
2023-01-17T11:17:48.954Z,1.30
2023-01-17T11:20:22.851Z,1.10
2023-01-17T11:23:15.879Z,1.13
2023-01-17T11:26:11.262Z,1.20
2023-01-17T11:28:42.693Z,0.90
2023-01-17T11:34:05.305Z,1.05
2023-01-17T11:36:32.726Z,0.85
2023-01-17T11:39:22.602Z,1.00
2023-01-17T11:41:49.478Z,0.88
2023-01-17T11:44:32.819Z,1.98
2023-01-17T11:47:11.589Z,1.52
2023-01-17T11:49:40.198Z,1.10
2023-01-17T11:52:27.274Z,1.00
2023-01-17T11:54:55.388Z,1.10
2023-01-17T11:57:26.734Z,1.13
2023-01-17T12:02:31.993Z,1.00
2023-01-17T12:05:18.465Z,2.10
2023-01-17T12:08:06.196Z,1.30
2023-01-17T12:10:53.317Z,1.23
2023-01-17T12:14:01.519Z,1.00
2023-01-17T12:16:33.213Z,1.00
2023-01-17T12:19:49.012Z,1.60
2023-01-17T12:22:27.882Z,0.95
2023-01-17T12:25:03.691Z,1.85
2023-01-17T12:27:30.358Z,1.27
2023-01-17T12:30:09.017Z,1.80
2023-01-17T12:32:40.712Z,1.00
2023-01-17T12:35:19.548Z,1.20
2023-01-17T12:38:04.427Z,1.00
2023-01-17T12:40:49.774Z,1.10
2023-01-17T12:43:25.791Z,2.70
2023-01-17T12:45:54.699Z,1.25
2023-01-17T12:48:23.238Z,1.25
2023-01-17T12:50:57.299Z,1.40
2023-01-17T12:53:39.484Z,2.40
2023-01-17T12:56:24.972Z,3.60
2023-01-17T12:59:07.674Z,1.70
2023-01-17T13:01:44.520Z,1.10
2023-01-17T13:04:26.659Z,0.93
2023-01-17T13:06:59.657Z,1.00
2023-01-17T13:09:37.062Z,1.10
2023-01-17T13:12:09.983Z,0.93
2023-01-17T13:14:39.854Z,1.10
2023-01-17T13:17:37.798Z,1.02
2023-01-17T13:20:22.690Z,2.60
2023-01-17T13:22:51.639Z,3.30
2023-01-17T13:25:27.245Z,1.40
2023-01-17T13:28:05.237Z,1.10
2023-01-17T13:30:50.349Z,1.80
2023-01-17T13:33:48.531Z,1.17
2023-01-17T13:36:30.311Z,0.98
2023-01-17T13:39:17.730Z,1.10
2023-01-17T13:42:02.442Z,1.40
2023-01-17T13:44:32.156Z,1.42
2023-01-17T13:47:08.131Z,1.02
2023-01-17T13:49:42.671Z,1.27
2023-01-17T13:52:23.115Z,1.30
2023-01-17T13:54:58.342Z,1.13
2023-01-17T13:57:32.879Z,1.20
2023-01-17T14:00:36.069Z,1.00
2023-01-17T14:03:14.662Z,1.13
2023-01-17T14:05:41.391Z,1.40
2023-01-17T14:08:20.606Z,1.30
2023-01-17T14:11:03.955Z,1.90
2023-01-17T14:13:40.049Z,1.50
2023-01-17T14:16:21.999Z,1.38
2023-01-17T14:18:49.630Z,1.80
2023-01-17T14:21:23.963Z,1.50
2023-01-17T14:23:57.648Z,2.35
2023-01-17T14:26:32.350Z,2.85
2023-01-17T14:29:19.653Z,3.33
2023-01-17T14:31:47.158Z,3.38
2023-01-17T14:34:14.109Z,5.22
2023-01-17T14:36:40.825Z,3.58
2023-01-17T14:39:22.264Z,4.40
2023-01-17T14:41:49.072Z,3.95
2023-01-17T14:44:15.847Z,2.20
2023-01-17T14:46:47.959Z,2.80
2023-01-17T14:49:26.008Z,3.97
2023-01-17T14:52:00.232Z,3.80
2023-01-17T14:54:27.780Z,4.50
2023-01-17T14:57:29.631Z,4.18
2023-01-17T15:00:21.283Z,4.57
2023-01-17T15:05:17.372Z,4.43
2023-01-17T15:07:46.830Z,4.55
2023-01-17T15:10:16.102Z,5.70
2023-01-17T15:12:46.692Z,5.00
2023-01-17T15:15:30.371Z,6.93
2023-01-17T15:18:25.479Z,9.35
2023-01-17T15:21:02.523Z,7.20
2023-01-17T15:23:37.136Z,5.05
2023-01-17T15:26:06.574Z,6.07
2023-01-17T15:28:37.116Z,5.28
2023-01-17T15:31:17.106Z,4.67
2023-01-17T15:33:47.107Z,3.75
2023-01-17T15:36:26.208Z,3.50
2023-01-17T15:39:00.232Z,3.65
2023-01-17T15:41:31.774Z,2.80
2023-01-17T15:43:58.906Z,3.45
2023-01-17T15:46:44.536Z,6.03
2023-01-17T15:49:23.155Z,3.75
2023-01-17T15:51:54.384Z,3.40
2023-01-17T15:54:34.674Z,3.97
2023-01-17T15:57:27.238Z,3.90
2023-01-17T16:00:32.667Z,3.10
2023-01-17T16:02:59.769Z,3.80
2023-01-17T16:05:31.101Z,3.90
2023-01-17T16:08:04.398Z,3.50
2023-01-17T16:10:37.214Z,3.60
2023-01-17T16:13:05.954Z,4.75
2023-01-17T16:15:35.347Z,5.13
2023-01-17T16:18:11.848Z,5.20
2023-01-17T16:20:44.363Z,8.32
2023-01-17T16:23:11.150Z,10.70
2023-01-17T16:25:38.497Z,10.93
2023-01-17T16:28:06.225Z,8.77
2023-01-17T16:30:33.628Z,7.50
2023-01-17T16:33:00.601Z,9.07
2023-01-17T16:35:31.285Z,11.02
2023-01-17T16:37:59.136Z,15.32
2023-01-17T16:40:28.566Z,12.93
2023-01-17T16:42:56.293Z,12.60
2023-01-17T16:45:25.987Z,13.10
2023-01-17T16:47:54.345Z,14.20
2023-01-17T16:50:25.115Z,14.43
2023-01-17T16:52:53.261Z,15.27
2023-01-17T16:55:25.290Z,15.82
2023-01-17T16:57:54.233Z,15.38
2023-01-17T17:00:22.721Z,14.20
2023-01-17T17:02:50.719Z,13.55
2023-01-17T17:05:18.148Z,12.82
2023-01-17T17:07:45.998Z,13.48
2023-01-17T17:10:14.673Z,10.15
2023-01-17T17:12:41.486Z,9.73
2023-01-17T17:15:09.005Z,8.68
2023-01-17T17:17:37.096Z,10.52
2023-01-17T17:20:05.096Z,11.10
2023-01-17T17:22:32.589Z,15.68
2023-01-17T17:24:59.302Z,18.45
2023-01-17T17:27:28.695Z,19.23
2023-01-17T17:29:55.609Z,18.50
2023-01-17T17:32:22.491Z,13.63
2023-01-17T17:34:51.085Z,15.07
2023-01-17T17:37:17.999Z,13.27
2023-01-17T17:39:45.370Z,12.68
2023-01-17T17:42:12.201Z,12.00
2023-01-17T17:44:38.878Z,12.25
2023-01-17T17:47:08.340Z,13.85
2023-01-17T17:49:35.126Z,13.23
2023-01-17T17:52:06.160Z,15.93
2023-01-17T17:54:33.024Z,14.35
2023-01-17T17:56:59.735Z,16.52
2023-01-17T17:59:26.942Z,13.40
2023-01-17T18:01:53.656Z,12.02
2023-01-17T18:04:21.637Z,13.40
2023-01-17T18:06:48.391Z,11.27
2023-01-17T18:09:16.645Z,11.50
2023-01-17T18:11:43.904Z,11.25
2023-01-17T18:14:13.787Z,9.68
2023-01-17T18:16:43.750Z,11.23
2023-01-17T18:19:17.300Z,9.77
2023-01-17T18:21:44.477Z,9.98
2023-01-17T18:24:13.518Z,9.13
2023-01-17T18:27:06.561Z,9.52
2023-01-17T18:29:33.312Z,9.30
2023-01-17T18:31:59.975Z,10.48
2023-01-17T18:34:29.430Z,9.95
2023-01-17T18:36:57.050Z,11.05
2023-01-17T18:39:26.500Z,10.63
2023-01-17T18:41:54.032Z,12.63
2023-01-17T18:44:22.142Z,11.95
2023-01-17T18:46:50.373Z,12.05
2023-01-17T18:49:19.301Z,11.23
2023-01-17T18:51:50.582Z,9.70
2023-01-17T18:54:18.463Z,10.02
2023-01-17T18:56:45.281Z,9.10
2023-01-17T18:59:14.105Z,9.35
2023-01-17T19:01:44.790Z,7.57
2023-01-17T19:04:13.586Z,6.32
2023-01-17T19:06:43.034Z,6.70
2023-01-17T19:09:12.404Z,8.10
2023-01-17T19:11:39.491Z,10.40
2023-01-17T19:14:07.218Z,11.85
2023-01-17T19:16:39.215Z,13.23
2023-01-17T19:19:08.443Z,13.70
2023-01-17T19:21:35.559Z,10.70
2023-01-17T19:24:02.876Z,10.48
2023-01-17T19:26:30.057Z,11.85
2023-01-17T19:29:03.782Z,10.88
2023-01-17T19:31:32.088Z,9.38
2023-01-17T19:33:59.729Z,10.18
2023-01-17T19:36:33.853Z,10.80
2023-01-17T19:39:05.719Z,10.85
2023-01-17T19:41:35.175Z,9.90
2023-01-17T19:44:08.052Z,7.30
2023-01-17T19:46:35.452Z,7.50
2023-01-17T19:49:03.644Z,8.05
2023-01-17T19:51:30.457Z,9.48
2023-01-17T19:53:59.882Z,9.55
2023-01-17T19:56:27.879Z,9.75
2023-01-17T19:58:54.767Z,8.95
2023-01-17T20:01:28.801Z,9.18
2023-01-17T20:03:58.046Z,10.60
2023-01-17T20:06:29.054Z,9.57
2023-01-17T20:08:56.207Z,8.90
2023-01-17T20:11:24.867Z,8.63
2023-01-17T20:13:54.304Z,9.27
2023-01-17T20:16:21.981Z,9.20
2023-01-17T20:18:49.530Z,10.35
2023-01-17T20:21:17.346Z,8.70
2023-01-17T20:23:47.005Z,9.02
2023-01-17T20:26:29.696Z,10.40
2023-01-17T20:28:56.705Z,9.10
2023-01-17T20:31:25.769Z,7.93
2023-01-17T20:33:54.591Z,6.50
2023-01-17T20:36:26.873Z,7.15
2023-01-17T20:38:54.522Z,6.85
2023-01-17T20:41:28.572Z,7.00
2023-01-17T20:43:57.765Z,7.47
2023-01-17T20:46:31.405Z,7.00
2023-01-17T20:48:58.364Z,6.03
2023-01-17T20:51:27.019Z,5.90
2023-01-17T20:53:56.660Z,6.32
2023-01-17T20:56:24.429Z,5.88
2023-01-17T20:58:52.414Z,5.90
2023-01-17T21:01:21.179Z,6.05
2023-01-17T21:03:51.587Z,5.60
2023-01-17T21:06:19.599Z,6.05
2023-01-17T21:08:47.451Z,5.90
2023-01-17T21:11:17.211Z,5.85
2023-01-17T21:13:44.352Z,5.10
2023-01-17T21:16:14.246Z,6.03
2023-01-17T21:18:41.584Z,5.80
2023-01-17T21:21:13.968Z,6.25
2023-01-17T21:23:42.479Z,6.20
2023-01-17T21:26:12.143Z,6.53
2023-01-17T21:28:40.965Z,6.82
2023-01-17T21:31:23.159Z,7.20
2023-01-17T21:33:59.076Z,6.47
2023-01-17T21:36:29.336Z,6.18
2023-01-17T21:38:57.871Z,5.63
2023-01-17T21:41:33.562Z,5.03
2023-01-17T21:44:04.928Z,4.78
2023-01-17T21:48:58.615Z,4.85
2023-01-17T21:51:45.582Z,5.03
2023-01-17T21:54:12.409Z,4.85
2023-01-17T21:56:57.814Z,4.65
2023-01-17T21:59:24.508Z,5.20
2023-01-17T22:01:51.278Z,5.00
2023-01-17T22:04:17.999Z,5.28
2023-01-17T22:06:44.655Z,5.35
2023-01-17T22:09:11.427Z,5.35
2023-01-17T22:11:38.128Z,5.57
2023-01-17T22:14:05.285Z,5.35
2023-01-17T22:16:32.321Z,5.20
2023-01-17T22:18:59.323Z,5.47
2023-01-17T22:21:28.422Z,5.53
2023-01-17T22:23:58.746Z,5.85
2023-01-17T22:26:30.274Z,6.03
2023-01-17T22:29:00.774Z,6.70
2023-01-17T22:31:28.225Z,5.90
2023-01-17T22:34:02.510Z,5.88
2023-01-17T22:36:31.955Z,5.90
2023-01-17T22:38:58.772Z,5.25
2023-01-17T22:41:31.320Z,5.68
2023-01-17T22:43:59.903Z,6.40
2023-01-17T22:46:30.307Z,6.15
2023-01-17T22:48:57.440Z,6.32
2023-01-17T22:51:25.307Z,6.82
2023-01-17T22:53:57.642Z,6.65
2023-01-17T22:56:30.107Z,7.32
2023-01-17T22:58:58.982Z,6.18
2023-01-17T23:01:31.364Z,5.63
2023-01-17T23:04:03.740Z,6.07
2023-01-17T23:06:33.237Z,5.43
2023-01-17T23:09:03.402Z,6.03
2023-01-17T23:11:46.200Z,5.68
2023-01-17T23:14:30.624Z,5.43
2023-01-17T23:17:21.159Z,5.28
2023-01-17T23:19:51.066Z,5.30
2023-01-17T23:22:27.117Z,5.03
2023-01-17T23:25:12.158Z,4.55
2023-01-17T23:27:59.938Z,5.35
2023-01-17T23:30:37.471Z,4.75
2023-01-17T23:33:10.207Z,5.22
2023-01-17T23:35:42.054Z,4.30
2023-01-17T23:38:26.377Z,4.25
2023-01-17T23:41:12.447Z,4.55
2023-01-17T23:43:39.149Z,4.78
2023-01-17T23:46:05.922Z,4.40
2023-01-17T23:48:32.599Z,4.63
2023-01-17T23:51:09.670Z,4.60
2023-01-17T23:53:38.001Z,4.75
2023-01-17T23:56:18.494Z,4.55
2023-01-17T23:58:45.419Z,4.70
